createdAt,value
2023-05-09T07:43:15.234Z,20.53
2023-05-09T07:45:42.431Z,20.46
2023-05-09T07:48:09.882Z,20.21
2023-05-09T07:50:37.190Z,20.28
2023-05-09T07:53:04.241Z,20.31
2023-05-09T07:55:31.317Z,20.21
2023-05-09T07:57:58.523Z,20.17
2023-05-09T08:00:25.634Z,20.28
2023-05-09T08:02:52.904Z,20.39
2023-05-09T08:05:20.454Z,20.36
2023-05-09T08:07:47.519Z,20.01
2023-05-09T08:10:14.546Z,20.61
2023-05-09T08:12:41.700Z,20.57
2023-05-09T08:15:10.094Z,20.70
2023-05-09T08:17:37.170Z,20.60
2023-05-09T08:20:06.055Z,20.39
2023-05-09T08:22:33.065Z,20.17
2023-05-09T08:25:00.097Z,20.55
2023-05-09T08:27:27.206Z,20.24
2023-05-09T08:29:54.192Z,20.25
2023-05-09T08:32:21.241Z,20.06
2023-05-09T08:34:48.377Z,20.35
2023-05-09T08:37:15.741Z,20.75
2023-05-09T08:39:42.975Z,20.53
2023-05-09T08:42:10.565Z,20.38
2023-05-09T08:44:39.906Z,20.35
2023-05-09T08:47:07.712Z,20.24
2023-05-09T08:49:35.976Z,20.41
2023-05-09T08:52:03.427Z,20.06
2023-05-09T08:54:30.686Z,20.20
2023-05-09T08:56:58.343Z,20.32
2023-05-09T08:59:27.365Z,20.22
2023-05-09T09:01:55.105Z,20.17
2023-05-09T09:04:24.712Z,20.12
2023-05-09T09:06:54.144Z,20.25
2023-05-09T09:09:59.510Z,20.26
2023-05-09T09:12:27.170Z,20.04
2023-05-09T09:14:57.513Z,19.94
2023-05-09T09:17:28.489Z,19.92
2023-05-09T09:20:00.033Z,20.19
2023-05-09T09:22:35.316Z,19.72
2023-05-09T09:25:07.253Z,20.06
2023-05-09T09:30:17.410Z,19.80
2023-05-09T09:32:44.628Z,20.13
2023-05-09T09:35:12.441Z,20.12
2023-05-09T09:37:40.873Z,20.35
2023-05-09T09:40:16.897Z,20.46
2023-05-09T09:42:47.916Z,20.46
2023-05-09T09:45:21.233Z,20.18
2023-05-09T09:48:07.559Z,19.92
2023-05-09T09:50:42.477Z,20.02
2023-05-09T09:53:38.167Z,20.16
2023-05-09T09:56:01.804Z,20.09
2023-05-09T09:58:33.663Z,20.25
2023-05-09T10:01:14.221Z,19.91
2023-05-09T10:03:50.113Z,19.81
2023-05-09T10:06:17.782Z,19.84
2023-05-09T10:08:49.632Z,20.19
2023-05-09T10:11:40.303Z,20.08
2023-05-09T10:14:36.723Z,20.01
2023-05-09T10:22:42.165Z,19.52
2023-05-09T10:40:53.733Z,19.96
2023-05-09T10:44:49.712Z,19.73
2023-05-09T10:47:50.830Z,19.89
2023-05-09T10:50:30.417Z,19.65
2023-05-09T10:53:50.231Z,19.75
2023-05-09T10:56:30.543Z,19.92
2023-05-09T11:01:46.834Z,19.67
2023-05-09T11:04:17.032Z,19.78
2023-05-09T11:06:52.464Z,19.77
2023-05-09T11:09:36.159Z,19.75
2023-05-09T11:12:06.313Z,20.05
2023-05-09T11:14:40.345Z,19.81
2023-05-09T11:17:23.022Z,19.67
2023-05-09T11:19:50.239Z,19.98
2023-05-09T11:22:21.160Z,19.57
2023-05-09T11:24:54.256Z,19.88
2023-05-09T11:27:28.903Z,19.80
2023-05-09T11:29:58.133Z,19.65
2023-05-09T11:32:32.011Z,19.56
2023-05-09T11:35:15.339Z,19.82
2023-05-09T11:38:00.395Z,19.38
2023-05-09T11:40:29.277Z,19.37
2023-05-09T11:42:58.860Z,19.94
2023-05-09T11:45:31.892Z,19.73
2023-05-09T11:50:48.329Z,19.54
2023-05-09T11:53:15.381Z,19.70
2023-05-09T11:55:42.601Z,19.45
2023-05-09T11:58:09.946Z,19.50
2023-05-09T12:00:47.215Z,19.78
2023-05-09T12:03:14.692Z,20.04
2023-05-09T12:05:42.885Z,19.69
2023-05-09T12:08:10.041Z,19.51
2023-05-09T12:10:39.228Z,19.56
2023-05-09T12:13:06.374Z,19.77
2023-05-09T12:15:39.485Z,19.75
2023-05-09T12:18:08.898Z,19.46
2023-05-09T12:20:47.989Z,19.83
2023-05-09T12:23:15.510Z,19.89
2023-05-09T12:25:49.491Z,19.57
2023-05-09T12:28:18.053Z,19.97
2023-05-09T12:30:45.667Z,19.69
2023-05-09T12:33:13.048Z,20.06
2023-05-09T12:35:40.713Z,19.77
2023-05-09T12:38:08.106Z,19.99
2023-05-09T12:40:35.233Z,19.99
2023-05-09T12:43:03.274Z,19.94
2023-05-09T12:45:34.090Z,19.57
2023-05-09T12:48:02.781Z,19.82
2023-05-09T12:50:36.780Z,19.91
2023-05-09T12:53:10.133Z,19.92
2023-05-09T12:55:45.218Z,19.99
2023-05-09T12:58:15.307Z,19.77
2023-05-09T13:00:48.464Z,19.95
2023-05-09T13:03:22.393Z,19.76
2023-05-09T13:05:57.506Z,20.15
2023-05-09T13:08:24.830Z,19.84
2023-05-09T13:10:57.828Z,19.72
2023-05-09T13:13:32.059Z,19.61
2023-05-09T13:15:59.168Z,19.96
2023-05-09T13:18:26.307Z,20.07
2023-05-09T13:20:53.446Z,19.82
2023-05-09T13:23:20.624Z,20.06
2023-05-09T13:25:47.744Z,20.12
2023-05-09T13:28:15.612Z,19.66
2023-05-09T13:30:42.698Z,20.19
2023-05-09T13:33:24.701Z,19.83
2023-05-09T13:35:53.602Z,19.98
2023-05-09T13:38:20.728Z,19.91
2023-05-09T13:40:47.795Z,19.72
2023-05-09T13:43:18.099Z,19.94
2023-05-09T13:45:49.382Z,19.79
2023-05-09T13:48:19.322Z,20.04
2023-05-09T13:51:31.561Z,20.16
2023-05-09T13:54:00.303Z,19.88
2023-05-09T13:56:34.194Z,19.68
2023-05-09T13:59:01.688Z,20.17
2023-05-09T14:01:29.253Z,19.76
2023-05-09T14:03:56.467Z,20.14
2023-05-09T14:06:23.578Z,20.32
2023-05-09T14:08:51.951Z,20.17
2023-05-09T14:11:19.028Z,20.04
2023-05-09T14:13:48.810Z,20.11
2023-05-09T14:16:16.254Z,20.38
2023-05-09T14:18:43.384Z,20.15
2023-05-09T14:21:10.626Z,20.39
2023-05-09T14:23:38.002Z,20.40
2023-05-09T14:26:17.868Z,20.06
2023-05-09T14:28:49.847Z,19.96
2023-05-09T14:31:17.773Z,20.16
2023-05-09T14:33:45.355Z,20.28
2023-05-09T14:36:12.909Z,20.10
2023-05-09T14:38:40.894Z,19.97
2023-05-09T14:41:09.235Z,20.28
2023-05-09T14:43:36.324Z,19.81
2023-05-09T14:46:03.804Z,20.11
2023-05-09T14:48:33.993Z,20.05
2023-05-09T14:51:01.457Z,20.33
2023-05-09T14:53:31.572Z,20.05
2023-05-09T14:56:02.740Z,20.25
2023-05-09T14:58:32.113Z,19.94
2023-05-09T15:00:59.439Z,20.33
2023-05-09T15:03:26.624Z,20.13
2023-05-09T15:05:53.865Z,20.07
2023-05-09T15:08:21.166Z,20.56
2023-05-09T15:10:51.399Z,19.83
2023-05-09T15:13:18.763Z,19.95
2023-05-09T15:15:45.901Z,20.08
2023-05-09T15:18:13.619Z,20.01
2023-05-09T15:20:40.794Z,20.26
2023-05-09T15:23:08.165Z,20.30
2023-05-09T15:25:35.266Z,20.05
2023-05-09T15:28:02.470Z,20.29
2023-05-09T15:30:29.766Z,19.89
2023-05-09T15:32:56.992Z,20.36
2023-05-09T15:35:24.178Z,20.31
2023-05-09T15:37:51.254Z,20.37
2023-05-09T15:40:18.509Z,20.27
2023-05-09T15:42:48.498Z,20.55
2023-05-09T15:45:18.423Z,20.19
2023-05-09T15:50:30.154Z,20.46
2023-05-09T15:52:57.597Z,20.33
2023-05-09T15:55:25.337Z,20.11
2023-05-09T15:57:53.828Z,20.79
2023-05-09T16:00:21.537Z,20.67
2023-05-09T16:02:48.682Z,20.52
2023-05-09T16:05:16.095Z,20.88
2023-05-09T16:07:57.091Z,20.69
2023-05-09T16:10:24.135Z,20.88
2023-05-09T16:12:52.549Z,20.51
2023-05-09T16:15:19.885Z,20.70
2023-05-09T16:17:47.241Z,20.66
2023-05-09T16:20:14.593Z,20.51
2023-05-09T16:22:42.412Z,20.93
2023-05-09T16:27:59.212Z,20.74
2023-05-09T16:30:26.261Z,20.58
2023-05-09T16:32:53.369Z,20.99
2023-05-09T16:35:20.652Z,21.06
2023-05-09T16:37:47.756Z,20.96
2023-05-09T16:40:15.505Z,21.00
2023-05-09T16:42:43.151Z,21.05
2023-05-09T16:45:12.826Z,20.53
2023-05-09T16:47:40.045Z,21.00
2023-05-09T16:50:11.007Z,20.87
2023-05-09T16:52:38.171Z,20.79
2023-05-09T16:55:06.106Z,21.09
2023-05-09T16:57:33.669Z,21.29
2023-05-09T17:00:00.840Z,21.14
2023-05-09T17:02:28.121Z,21.13
2023-05-09T17:04:55.473Z,21.06
2023-05-09T17:07:22.583Z,21.12
2023-05-09T17:09:49.963Z,21.17
2023-05-09T17:12:18.665Z,21.18
2023-05-09T17:14:47.672Z,21.25
2023-05-09T17:17:17.937Z,21.18
2023-05-09T17:19:45.926Z,21.13
2023-05-09T17:22:13.036Z,21.22
2023-05-09T17:24:40.089Z,21.35
2023-05-09T17:27:07.593Z,21.19
2023-05-09T17:29:34.744Z,21.63
2023-05-09T17:32:02.148Z,21.39
2023-05-09T17:34:29.527Z,21.34
2023-05-09T17:36:56.792Z,21.33
2023-05-09T17:39:24.113Z,21.13
2023-05-09T17:41:51.645Z,21.11
2023-05-09T17:44:21.722Z,21.50
2023-05-09T17:46:49.890Z,21.15
2023-05-09T17:49:17.770Z,21.51
2023-05-09T17:51:44.866Z,21.72
2023-05-09T17:54:13.115Z,21.68
2023-05-09T17:56:40.498Z,21.68
2023-05-09T17:59:08.170Z,22.01
2023-05-09T18:01:35.550Z,21.59
2023-05-09T18:04:03.093Z,21.74
2023-05-09T18:06:30.293Z,21.87
2023-05-09T18:08:57.395Z,21.67
2023-05-09T18:11:24.892Z,21.62
2023-05-09T18:13:52.045Z,21.35
2023-05-09T18:16:19.312Z,21.64
2023-05-09T18:18:48.573Z,21.74
2023-05-09T18:21:15.795Z,21.56
2023-05-09T18:23:42.948Z,21.89
2023-05-09T18:26:10.165Z,21.82
2023-05-09T18:28:40.110Z,21.82
2023-05-09T18:31:13.230Z,21.83
2023-05-09T18:33:40.601Z,21.93
2023-05-09T18:36:11.877Z,21.92
2023-05-09T18:38:40.264Z,21.95
2023-05-09T18:41:14.100Z,21.99
2023-05-09T18:43:54.076Z,21.88
2023-05-09T18:47:15.512Z,22.03
2023-05-09T18:49:44.842Z,22.01
2023-05-09T18:52:13.189Z,22.07
2023-05-09T18:54:42.973Z,22.34
2023-05-09T18:57:10.581Z,22.14
2023-05-09T18:59:41.677Z,22.00
2023-05-09T19:02:09.402Z,21.89
2023-05-09T19:07:19.237Z,22.23
2023-05-09T19:09:58.259Z,22.25
2023-05-09T19:12:26.775Z,21.99
2023-05-09T19:14:57.429Z,21.98
2023-05-09T19:17:28.530Z,22.30
2023-05-09T19:19:55.933Z,22.29
2023-05-09T19:22:25.939Z,22.31
2023-05-09T19:24:53.774Z,22.17
2023-05-09T19:27:22.453Z,22.27
2023-05-09T19:30:12.857Z,22.21
2023-05-09T19:32:41.728Z,22.31
2023-05-09T19:35:13.032Z,22.20
2023-05-09T19:37:41.918Z,22.21
2023-05-09T19:40:09.914Z,22.39
2023-05-09T19:42:38.696Z,22.18
2023-05-09T19:45:07.909Z,22.43
2023-05-09T19:47:38.657Z,22.43
2023-05-09T19:50:10.164Z,22.58
2023-05-09T19:52:37.679Z,22.21
2023-05-09T19:55:07.943Z,22.58
2023-05-09T19:57:35.829Z,22.47
2023-05-09T20:00:06.205Z,22.61
2023-05-09T20:02:40.478Z,22.42
2023-05-09T20:05:10.803Z,22.45
2023-05-09T20:07:40.036Z,22.72
2023-05-09T20:10:11.857Z,22.76
2023-05-09T20:12:42.253Z,22.50
2023-05-09T20:15:12.527Z,22.82
2023-05-09T20:17:41.752Z,22.62
2023-05-09T20:20:12.917Z,22.67
2023-05-09T20:22:41.477Z,22.78
2023-05-09T20:25:09.990Z,22.58
2023-05-09T20:27:38.576Z,22.82
2023-05-09T20:30:08.231Z,22.76
2023-05-09T20:32:37.547Z,22.44
2023-05-09T20:35:06.815Z,22.63
2023-05-09T20:37:35.443Z,22.73
2023-05-09T20:40:08.230Z,22.59
2023-05-09T20:42:37.366Z,22.42
2023-05-09T20:45:09.430Z,22.40
2023-05-09T20:47:38.290Z,22.63
2023-05-09T20:50:07.020Z,22.63
2023-05-09T20:52:44.496Z,22.59
2023-05-09T20:55:11.886Z,22.63
2023-05-09T20:57:39.097Z,22.57
2023-05-09T21:00:10.540Z,22.68
2023-05-09T21:02:37.832Z,22.61
2023-05-09T21:05:08.883Z,22.79
2023-05-09T21:07:35.944Z,22.65
2023-05-09T21:10:03.015Z,22.66
2023-05-09T21:12:30.880Z,22.79
2023-05-09T21:14:58.308Z,22.63
2023-05-09T21:17:28.235Z,22.68
2023-05-09T21:19:55.363Z,22.99
2023-05-09T21:22:25.522Z,22.68
2023-05-09T21:25:24.465Z,22.91
2023-05-09T21:27:54.873Z,23.04
2023-05-09T21:30:22.069Z,22.81
2023-05-09T21:32:59.504Z,22.89
2023-05-09T21:35:26.848Z,23.18
2023-05-09T21:37:57.081Z,23.19
2023-05-09T21:40:34.416Z,22.94
2023-05-09T21:43:01.874Z,23.14
2023-05-09T21:45:29.280Z,23.06
2023-05-09T21:48:01.519Z,23.05
2023-05-09T21:50:28.811Z,23.17
2023-05-09T21:52:56.680Z,23.01
2023-05-09T21:55:23.891Z,23.28
2023-05-09T21:57:51.062Z,23.10
2023-05-09T22:00:21.332Z,23.09
2023-05-09T22:02:50.999Z,23.05
2023-05-09T22:05:18.368Z,22.90
2023-05-09T22:07:45.625Z,23.34
2023-05-09T22:10:12.759Z,23.00
2023-05-09T22:12:40.216Z,23.21
2023-05-09T22:15:08.130Z,22.97
2023-05-09T22:17:35.794Z,22.96
2023-05-09T22:20:03.150Z,23.07
2023-05-09T22:22:31.616Z,23.20
2023-05-09T22:24:58.673Z,22.89
2023-05-09T22:27:26.584Z,22.98
2023-05-09T22:29:54.096Z,22.85
2023-05-09T22:32:21.509Z,22.75
2023-05-09T22:35:00.403Z,22.92
2023-05-09T22:37:27.503Z,23.23
2023-05-09T22:39:57.867Z,22.65
2023-05-09T22:42:25.638Z,23.18
2023-05-09T22:44:53.180Z,22.92
2023-05-09T22:47:20.516Z,22.79
2023-05-09T22:49:47.579Z,22.73
2023-05-09T22:52:14.667Z,23.23
2023-05-09T22:54:41.756Z,22.93
2023-05-09T22:57:08.989Z,22.66
2023-05-09T22:59:37.227Z,23.16
2023-05-09T23:02:05.297Z,22.92
2023-05-09T23:04:32.435Z,23.30
2023-05-09T23:06:59.451Z,22.69
2023-05-09T23:09:27.236Z,23.04
2023-05-09T23:11:55.446Z,23.18
2023-05-09T23:14:22.479Z,23.04
2023-05-09T23:16:49.507Z,23.03
2023-05-09T23:19:16.693Z,22.77
2023-05-09T23:21:43.720Z,22.94
2023-05-09T23:24:10.730Z,23.27
2023-05-09T23:26:37.773Z,22.93
2023-05-09T23:29:04.747Z,22.81
2023-05-09T23:31:31.827Z,22.77
2023-05-09T23:33:59.013Z,23.03
2023-05-09T23:36:26.206Z,22.83
2023-05-09T23:38:53.204Z,23.15
2023-05-09T23:41:22.571Z,23.03
2023-05-09T23:43:49.751Z,23.00
2023-05-09T23:46:17.082Z,23.23
2023-05-09T23:48:44.200Z,22.94
2023-05-09T23:51:11.195Z,22.83
2023-05-09T23:53:38.157Z,22.73
2023-05-09T23:56:06.157Z,23.14
2023-05-09T23:58:33.166Z,22.96
